sensor_id;sensor_type;location;lat;lon;timestamp;pressure;altitude;pressure_sealevel;temperature;humidity
62524;BME280;53689;56.878;60.672;2023-02-01T00:00:52;98091.63;;;22.68;24.57
62524;BME280;53689;56.878;60.672;2023-02-01T00:03:20;98092.06;;;22.65;24.13
62524;BME280;53689;56.878;60.672;2023-02-01T00:05:55;98090.59;;;22.69;23.85
62524;BME280;53689;56.878;60.672;2023-02-01T00:08:22;98101.81;;;22.66;23.98
62524;BME280;53689;56.878;60.672;2023-02-01T00:10:59;98098.91;;;22.68;23.93
62524;BME280;53689;56.878;60.672;2023-02-01T00:13:29;98097.66;;;22.70;23.80
62524;BME280;53689;56.878;60.672;2023-02-01T00:16:03;98102.84;;;22.72;23.69
62524;BME280;53689;56.878;60.672;2023-02-01T00:18:31;98102.00;;;22.71;23.39
62524;BME280;53689;56.878;60.672;2023-02-01T00:20:58;98100.75;;;22.74;23.40
62524;BME280;53689;56.878;60.672;2023-02-01T00:23:26;98110.31;;;22.70;23.67
62524;BME280;53689;56.878;60.672;2023-02-01T00:25:54;98109.69;;;22.75;23.79
62524;BME280;53689;56.878;60.672;2023-02-01T00:28:23;98101.00;;;22.72;23.47
62524;BME280;53689;56.878;60.672;2023-02-01T00:30:56;98098.28;;;22.72;23.53
62524;BME280;53689;56.878;60.672;2023-02-01T00:33:24;98102.84;;;22.72;23.82
62524;BME280;53689;56.878;60.672;2023-02-01T00:35:56;98099.09;;;22.73;23.59
62524;BME280;53689;56.878;60.672;2023-02-01T00:38:24;98101.59;;;22.75;23.52
62524;BME280;53689;56.878;60.672;2023-02-01T00:40:52;98100.38;;;22.77;23.69
62524;BME280;53689;56.878;60.672;2023-02-01T00:43:20;98103.47;;;22.74;23.23
62524;BME280;53689;56.878;60.672;2023-02-01T00:45:49;98107.81;;;22.75;23.77
62524;BME280;53689;56.878;60.672;2023-02-01T00:48:16;98102.84;;;22.72;23.67
62524;BME280;53689;56.878;60.672;2023-02-01T00:50:44;98109.28;;;22.78;23.61
62524;BME280;53689;56.878;60.672;2023-02-01T00:53:12;98109.91;;;22.73;23.62
62524;BME280;53689;56.878;60.672;2023-02-01T00:55:39;98106.16;;;22.74;23.64
62524;BME280;53689;56.878;60.672;2023-02-01T00:58:07;98112.16;;;22.76;23.40
62524;BME280;53689;56.878;60.672;2023-02-01T01:00:35;98124.00;;;22.75;23.64
62524;BME280;53689;56.878;60.672;2023-02-01T01:03:04;98133.38;;;22.79;23.36
62524;BME280;53689;56.878;60.672;2023-02-01T01:05:32;98129.00;;;22.78;23.03
62524;BME280;53689;56.878;60.672;2023-02-01T01:07:59;98124.44;;;22.79;23.76
62524;BME280;53689;56.878;60.672;2023-02-01T01:10:27;98118.81;;;22.80;23.45
62524;BME280;53689;56.878;60.672;2023-02-01T01:12:54;98125.88;;;22.81;23.75
62524;BME280;53689;56.878;60.672;2023-02-01T01:15:22;98131.47;;;22.80;23.19
62524;BME280;53689;56.878;60.672;2023-02-01T01:17:49;98134.41;;;22.78;23.45
62524;BME280;53689;56.878;60.672;2023-02-01T01:20:19;98129.00;;;22.78;23.45
62524;BME280;53689;56.878;60.672;2023-02-01T01:22:47;98131.28;;;22.81;23.24
62524;BME280;53689;56.878;60.672;2023-02-01T01:25:15;98127.34;;;22.77;23.22
62524;BME280;53689;56.878;60.672;2023-02-01T01:27:42;98142.06;;;22.81;23.56
62524;BME280;53689;56.878;60.672;2023-02-01T01:30:10;98136.69;;;22.81;23.02
62524;BME280;53689;56.878;60.672;2023-02-01T01:32:38;98146.22;;;22.84;23.37
62524;BME280;53689;56.878;60.672;2023-02-01T01:35:06;98146.00;;;22.79;23.38
62524;BME280;53689;56.878;60.672;2023-02-01T01:37:35;98146.88;;;22.79;23.25
62524;BME280;53689;56.878;60.672;2023-02-01T01:40:03;98138.34;;;22.76;23.40
62524;BME280;53689;56.878;60.672;2023-02-01T01:42:36;98146.00;;;22.79;23.03
62524;BME280;53689;56.878;60.672;2023-02-01T01:45:06;98153.50;;;22.77;23.00
62524;BME280;53689;56.878;60.672;2023-02-01T01:47:38;98149.34;;;22.74;23.57
62524;BME280;53689;56.878;60.672;2023-02-01T01:50:10;98148.09;;;22.70;23.35
62524;BME280;53689;56.878;60.672;2023-02-01T01:52:40;98157.25;;;22.76;23.14
62524;BME280;53689;56.878;60.672;2023-02-01T01:55:09;98159.50;;;22.79;23.49
62524;BME280;53689;56.878;60.672;2023-02-01T01:57:39;98162.00;;;22.80;23.29
62524;BME280;53689;56.878;60.672;2023-02-01T02:00:12;98159.31;;;22.80;23.44
62524;BME280;53689;56.878;60.672;2023-02-01T02:02:41;98169.06;;;22.81;23.34
62524;BME280;53689;56.878;60.672;2023-02-01T02:05:10;98166.38;;;22.81;23.21
62524;BME280;53689;56.878;60.672;2023-02-01T02:07:43;98169.06;;;22.81;23.02
62524;BME280;53689;56.878;60.672;2023-02-01T02:10:14;98167.41;;;22.80;23.09
62524;BME280;53689;56.878;60.672;2023-02-01T02:12:42;98169.25;;;22.80;22.55
62524;BME280;53689;56.878;60.672;2023-02-01T02:15:13;98173.44;;;22.82;23.02
62524;BME280;53689;56.878;60.672;2023-02-01T02:17:46;98180.91;;;22.80;23.04
62524;BME280;53689;56.878;60.672;2023-02-01T02:20:39;98171.75;;;22.81;22.72
62524;BME280;53689;56.878;60.672;2023-02-01T02:23:31;98179.03;;;22.81;23.49
62524;BME280;53689;56.878;60.672;2023-02-01T02:26:28;98176.56;;;22.79;22.70
62524;BME280;53689;56.878;60.672;2023-02-01T02:32:10;98180.91;;;22.80;22.36
62524;BME280;53689;56.878;60.672;2023-02-01T02:34:50;98177.38;;;22.80;22.85
62524;BME280;53689;56.878;60.672;2023-02-01T02:37:26;98173.00;;;22.79;23.18
62524;BME280;53689;56.878;60.672;2023-02-01T02:40:05;98170.72;;;22.76;23.40
62524;BME280;53689;56.878;60.672;2023-02-01T02:42:39;98183.00;;;22.78;23.03
62524;BME280;53689;56.878;60.672;2023-02-01T02:45:14;98183.81;;;22.79;22.94
62524;BME280;53689;56.878;60.672;2023-02-01T02:47:51;98183.59;;;22.80;22.93
62524;BME280;53689;56.878;60.672;2023-02-01T02:50:27;98189.44;;;22.77;22.49
62524;BME280;53689;56.878;60.672;2023-02-01T02:53:06;98189.00;;;22.80;22.02
62524;BME280;53689;56.878;60.672;2023-02-01T02:55:38;98194.59;;;22.72;22.94
62524;BME280;53689;56.878;60.672;2023-02-01T02:58:11;98202.06;;;22.77;22.91
62524;BME280;53689;56.878;60.672;2023-02-01T03:00:40;98205.41;;;22.72;21.76
62524;BME280;53689;56.878;60.672;2023-02-01T03:03:09;98202.91;;;22.77;23.29
62524;BME280;53689;56.878;60.672;2023-02-01T03:05:42;98212.44;;;22.73;23.15
62524;BME280;53689;56.878;60.672;2023-02-01T03:08:13;98214.34;;;22.72;23.28
62524;BME280;53689;56.878;60.672;2023-02-01T03:10:47;98211.22;;;22.76;22.73
62524;BME280;53689;56.878;60.672;2023-02-01T03:13:22;98212.88;;;22.77;23.14
62524;BME280;53689;56.878;60.672;2023-02-01T03:15:59;98229.69;;;22.79;22.86
62524;BME280;53689;56.878;60.672;2023-02-01T03:18:36;98221.59;;;22.79;22.22
62524;BME280;53689;56.878;60.672;2023-02-01T03:21:12;98229.06;;;22.70;22.96
62524;BME280;53689;56.878;60.672;2023-02-01T03:23:42;98236.75;;;22.73;23.21
62524;BME280;53689;56.878;60.672;2023-02-01T03:26:13;98245.06;;;22.78;23.26
62524;BME280;53689;56.878;60.672;2023-02-01T03:28:44;98243.59;;;22.76;22.49
62524;BME280;53689;56.878;60.672;2023-02-01T03:31:13;98246.50;;;22.81;22.91
62524;BME280;53689;56.878;60.672;2023-02-01T03:33:41;98255.03;;;22.78;22.85
62524;BME280;53689;56.878;60.672;2023-02-01T03:36:17;98250.66;;;22.77;22.71
62524;BME280;53689;56.878;60.672;2023-02-01T03:38:51;98253.56;;;22.75;22.92
62524;BME280;53689;56.878;60.672;2023-02-01T03:41:27;98260.84;;;22.75;22.97
62524;BME280;53689;56.878;60.672;2023-02-01T03:44:01;98269.56;;;22.77;23.23
62524;BME280;53689;56.878;60.672;2023-02-01T03:46:32;98255.84;;;22.78;22.84
62524;BME280;53689;56.878;60.672;2023-02-01T03:49:06;98271.41;;;22.76;23.00
62524;BME280;53689;56.878;60.672;2023-02-01T03:51:40;98279.13;;;22.79;23.47
62524;BME280;53689;56.878;60.672;2023-02-01T03:54:12;98285.31;;;22.73;23.30
62524;BME280;53689;56.878;60.672;2023-02-01T03:56:42;98288.44;;;22.77;23.43
62524;BME280;53689;56.878;60.672;2023-02-01T03:59:12;98283.91;;;22.77;23.39
62524;BME280;53689;56.878;60.672;2023-02-01T04:01:41;98292.59;;;22.79;23.58
62524;BME280;53689;56.878;60.672;2023-02-01T04:04:09;98301.75;;;22.78;23.50
62524;BME280;53689;56.878;60.672;2023-02-01T04:06:40;98298.00;;;22.79;23.41
62524;BME280;53689;56.878;60.672;2023-02-01T04:09:07;98300.91;;;22.78;22.79
62524;BME280;53689;56.878;60.672;2023-02-01T04:11:35;98306.91;;;22.80;23.19
62524;BME280;53689;56.878;60.672;2023-02-01T04:14:02;98307.75;;;22.80;23.05
62524;BME280;53689;56.878;60.672;2023-02-01T04:16:30;98305.06;;;22.80;22.74
62524;BME280;53689;56.878;60.672;2023-02-01T04:18:58;98307.75;;;22.80;22.97
62524;BME280;53689;56.878;60.672;2023-02-01T04:21:27;98301.31;;;22.81;23.15
62524;BME280;53689;56.878;60.672;2023-02-01T04:23:56;98303.00;;;22.82;22.44
62524;BME280;53689;56.878;60.672;2023-02-01T04:26:24;98303.00;;;22.82;23.23
62524;BME280;53689;56.878;60.672;2023-02-01T04:28:52;98309.22;;;22.83;23.31
62524;BME280;53689;56.878;60.672;2023-02-01T04:31:20;98312.97;;;22.82;22.83
62524;BME280;53689;56.878;60.672;2023-02-01T04:33:48;98310.03;;;22.83;22.66
62524;BME280;53689;56.878;60.672;2023-02-01T04:36:16;98322.50;;;22.78;22.68
62524;BME280;53689;56.878;60.672;2023-02-01T04:38:44;98331.63;;;22.77;21.47
62524;BME280;53689;56.878;60.672;2023-02-01T04:41:13;98325.00;;;22.79;20.08
62524;BME280;53689;56.878;60.672;2023-02-01T04:43:41;98323.34;;;22.78;21.34
62524;BME280;53689;56.878;60.672;2023-02-01T04:46:09;98330.41;;;22.79;20.54
62524;BME280;53689;56.878;60.672;2023-02-01T04:48:36;98339.31;;;22.80;21.42
62524;BME280;53689;56.878;60.672;2023-02-01T04:51:04;98339.72;;;22.83;21.80
62524;BME280;53689;56.878;60.672;2023-02-01T04:53:31;98340.16;;;22.80;20.51
62524;BME280;53689;56.878;60.672;2023-02-01T04:55:59;98336.84;;;22.78;21.25
62524;BME280;53689;56.878;60.672;2023-02-01T04:58:29;98336.84;;;22.78;21.51
62524;BME280;53689;56.878;60.672;2023-02-01T05:00:57;98350.53;;;22.83;21.51
62524;BME280;53689;56.878;60.672;2023-02-01T05:03:25;98342.63;;;22.75;21.83
62524;BME280;53689;56.878;60.672;2023-02-01T05:05:53;98346.16;;;22.76;20.73
62524;BME280;53689;56.878;60.672;2023-02-01T05:08:20;98351.56;;;22.76;20.79
62524;BME280;53689;56.878;60.672;2023-02-01T05:10:48;98344.94;;;22.85;21.35
62524;BME280;53689;56.878;60.672;2023-02-01T05:13:16;98347.03;;;22.83;20.45
62524;BME280;53689;56.878;60.672;2023-02-01T05:15:45;98360.94;;;22.86;21.63
62524;BME280;53689;56.878;60.672;2023-02-01T05:18:13;98358.88;;;22.89;19.85
62524;BME280;53689;56.878;60.672;2023-02-01T05:20:40;98364.47;;;22.87;20.26
62524;BME280;53689;56.878;60.672;2023-02-01T05:23:08;98366.72;;;22.83;19.79
62524;BME280;53689;56.878;60.672;2023-02-01T05:25:35;98366.13;;;22.88;20.57
62524;BME280;53689;56.878;60.672;2023-02-01T05:28:03;98368.38;;;22.84;20.53
62524;BME280;53689;56.878;60.672;2023-02-01T05:30:31;98381.50;;;22.88;20.65
62524;BME280;53689;56.878;60.672;2023-02-01T05:33:00;98376.50;;;22.84;20.35
62524;BME280;53689;56.878;60.672;2023-02-01T05:35:29;98379.63;;;22.46;20.85
62524;BME280;53689;56.878;60.672;2023-02-01T05:37:57;98379.59;;;22.33;20.26
62524;BME280;53689;56.878;60.672;2023-02-01T05:40:24;98382.00;;;22.49;19.88
62524;BME280;53689;56.878;60.672;2023-02-01T05:42:52;98383.66;;;22.15;18.31
62524;BME280;53689;56.878;60.672;2023-02-01T05:45:19;98377.53;;;22.35;19.26
62524;BME280;53689;56.878;60.672;2023-02-01T05:47:47;98382.94;;;22.41;19.15
62524;BME280;53689;56.878;60.672;2023-02-01T05:50:16;98382.56;;;22.44;20.12
62524;BME280;53689;56.878;60.672;2023-02-01T05:52:44;98390.91;;;22.56;20.01
62524;BME280;53689;56.878;60.672;2023-02-01T05:55:15;98386.69;;;22.47;19.41
62524;BME280;53689;56.878;60.672;2023-02-01T05:57:43;98392.19;;;22.54;19.33
62524;BME280;53689;56.878;60.672;2023-02-01T06:00:12;98394.28;;;22.58;19.54
62524;BME280;53689;56.878;60.672;2023-02-01T06:02:41;98396.31;;;22.56;19.57
62524;BME280;53689;56.878;60.672;2023-02-01T06:05:09;98386.38;;;22.57;19.40
62524;BME280;53689;56.878;60.672;2023-02-01T06:07:38;98393.44;;;22.58;19.60
62524;BME280;53689;56.878;60.672;2023-02-01T06:10:06;98398.22;;;22.63;19.79
62524;BME280;53689;56.878;60.672;2023-02-01T06:12:34;98392.81;;;22.63;19.50
62524;BME280;53689;56.878;60.672;2023-02-01T06:15:02;98399.06;;;22.63;19.52
62524;BME280;53689;56.878;60.672;2023-02-01T06:17:30;98413.78;;;22.61;20.25
62524;BME280;53689;56.878;60.672;2023-02-01T06:19:58;98406.31;;;22.63;19.98
62524;BME280;53689;56.878;60.672;2023-02-01T06:22:26;98404.84;;;22.60;19.60
62524;BME280;53689;56.878;60.672;2023-02-01T06:24:55;98415.63;;;22.60;19.70
62524;BME280;53689;56.878;60.672;2023-02-01T06:27:23;98419.06;;;22.47;20.35
62524;BME280;53689;56.878;60.672;2023-02-01T06:29:51;98411.03;;;22.18;20.83
62524;BME280;53689;56.878;60.672;2023-02-01T06:32:19;98416.25;;;22.55;19.99
62524;BME280;53689;56.878;60.672;2023-02-01T06:34:47;98417.72;;;22.65;19.74
62524;BME280;53689;56.878;60.672;2023-02-01T06:37:15;98414.59;;;22.61;20.41
62524;BME280;53689;56.878;60.672;2023-02-01T06:39:43;98411.25;;;22.52;21.20
62524;BME280;53689;56.878;60.672;2023-02-01T06:42:12;98414.59;;;22.61;20.34
62524;BME280;53689;56.878;60.672;2023-02-01T06:44:41;98412.31;;;22.58;21.50
62524;BME280;53689;56.878;60.672;2023-02-01T06:47:09;98412.56;;;22.63;20.15
62524;BME280;53689;56.878;60.672;2023-02-01T06:49:36;98418.56;;;22.58;19.85
62524;BME280;53689;56.878;60.672;2023-02-01T06:52:04;98425.47;;;22.75;19.73
62524;BME280;53689;56.878;60.672;2023-02-01T06:54:32;98420.88;;;22.75;20.57
62524;BME280;53689;56.878;60.672;2023-02-01T06:56:59;98415.09;;;22.78;20.30
62524;BME280;53689;56.878;60.672;2023-02-01T06:59:29;98421.28;;;22.65;21.37
62524;BME280;53689;56.878;60.672;2023-02-01T07:01:57;98418.34;;;22.67;21.02
62524;BME280;53689;56.878;60.672;2023-02-01T07:04:25;98411.72;;;22.69;20.72
62524;BME280;53689;56.878;60.672;2023-02-01T07:06:53;98419.84;;;22.76;19.75
62524;BME280;53689;56.878;60.672;2023-02-01T07:09:21;98420.88;;;22.75;20.31
62524;BME280;53689;56.878;60.672;2023-02-01T07:11:49;98427.94;;;22.76;20.37
62524;BME280;53689;56.878;60.672;2023-02-01T07:14:17;98430.25;;;22.79;20.23
62524;BME280;53689;56.878;60.672;2023-02-01T07:16:46;98423.41;;;22.83;20.29
62524;BME280;53689;56.878;60.672;2023-02-01T07:19:13;98433.41;;;22.90;20.78
62524;BME280;53689;56.878;60.672;2023-02-01T07:21:41;98446.66;;;22.84;20.41
62524;BME280;53689;56.878;60.672;2023-02-01T07:24:09;98442.09;;;22.78;20.55
62524;BME280;53689;56.878;60.672;2023-02-01T07:26:37;98441.66;;;22.75;20.70
62524;BME280;53689;56.878;60.672;2023-02-01T07:29:04;98444.56;;;22.80;20.69
62524;BME280;53689;56.878;60.672;2023-02-01T07:31:33;98441.84;;;22.73;20.89
62524;BME280;53689;56.878;60.672;2023-02-01T07:34:02;98444.34;;;22.68;20.76
62524;BME280;53689;56.878;60.672;2023-02-01T07:36:29;98448.88;;;22.67;20.35
62524;BME280;53689;56.878;60.672;2023-02-01T07:38:58;98434.97;;;22.64;20.82
62524;BME280;53689;56.878;60.672;2023-02-01T07:41:26;98441.41;;;22.69;20.13
62524;BME280;53689;56.878;60.672;2023-02-01T07:43:54;98442.03;;;22.65;20.09
62524;BME280;53689;56.878;60.672;2023-02-01T07:46:23;98448.69;;;22.69;19.96
62524;BME280;53689;56.878;60.672;2023-02-01T07:48:51;98442.47;;;22.68;20.81
62524;BME280;53689;56.878;60.672;2023-02-01T07:51:20;98440.34;;;22.57;21.10
62524;BME280;53689;56.878;60.672;2023-02-01T07:53:48;98444.13;;;22.69;20.70
62524;BME280;53689;56.878;60.672;2023-02-01T07:56:17;98439.78;;;22.75;20.86
62524;BME280;53689;56.878;60.672;2023-02-01T07:58:46;98434.34;;;22.68;19.99
62524;BME280;53689;56.878;60.672;2023-02-01T08:01:15;98447.22;;;22.66;20.38
62524;BME280;53689;56.878;60.672;2023-02-01T08:03:43;98448.69;;;22.69;20.78
62524;BME280;53689;56.878;60.672;2023-02-01T08:06:11;98439.56;;;22.70;20.89
62524;BME280;53689;56.878;60.672;2023-02-01T08:08:40;98444.56;;;22.73;20.74
62524;BME280;53689;56.878;60.672;2023-02-01T08:11:08;98450.16;;;22.71;20.21
62524;BME280;53689;56.878;60.672;2023-02-01T08:13:37;98462.03;;;22.77;19.38
62524;BME280;53689;56.878;60.672;2023-02-01T08:16:06;98457.63;;;22.76;19.84
62524;BME280;53689;56.878;60.672;2023-02-01T08:18:37;98448.53;;;22.77;19.68
62524;BME280;53689;56.878;60.672;2023-02-01T08:21:07;98453.53;;;22.80;19.73
62524;BME280;53689;56.878;60.672;2023-02-01T08:23:37;98450.63;;;22.82;20.44
62524;BME280;53689;56.878;60.672;2023-02-01T08:26:09;98450.63;;;22.82;20.40
62524;BME280;53689;56.878;60.672;2023-02-01T08:28:38;98447.94;;;22.89;19.75
62524;BME280;53689;56.878;60.672;2023-02-01T08:31:08;98448.56;;;22.84;20.36
62524;BME280;53689;56.878;60.672;2023-02-01T08:33:37;98453.09;;;22.83;19.98
62524;BME280;53689;56.878;60.672;2023-02-01T08:36:09;98453.72;;;22.85;20.56
62524;BME280;53689;56.878;60.672;2023-02-01T08:38:38;98450.22;;;22.85;19.76
62524;BME280;53689;56.878;60.672;2023-02-01T08:41:09;98453.97;;;22.91;20.10
62524;BME280;53689;56.878;60.672;2023-02-01T08:43:38;98452.47;;;22.81;19.63
62524;BME280;53689;56.878;60.672;2023-02-01T08:46:06;98456.19;;;22.73;20.65
62524;BME280;53689;56.878;60.672;2023-02-01T08:48:34;98457.84;;;22.75;20.20
62524;BME280;53689;56.878;60.672;2023-02-01T08:51:03;98463.28;;;22.81;20.94
62524;BME280;53689;56.878;60.672;2023-02-01T08:53:32;98455.38;;;22.80;20.38
62524;BME280;53689;56.878;60.672;2023-02-01T08:56:00;98454.16;;;22.89;19.38
62524;BME280;53689;56.878;60.672;2023-02-01T08:58:30;98456.22;;;22.80;20.24
62524;BME280;53689;56.878;60.672;2023-02-01T09:01:03;98453.94;;;22.77;20.58
62524;BME280;53689;56.878;60.672;2023-02-01T09:03:30;98452.84;;;22.71;20.67
62524;BME280;53689;56.878;60.672;2023-02-01T09:06:02;98456.38;;;22.72;21.12
62524;BME280;53689;56.878;60.672;2023-02-01T09:08:30;98456.81;;;22.76;20.07
62524;BME280;53689;56.878;60.672;2023-02-01T09:11:01;98462.25;;;22.82;20.21
62524;BME280;53689;56.878;60.672;2023-02-01T09:13:32;98467.22;;;22.85;20.59
62524;BME280;53689;56.878;60.672;2023-02-01T09:16:00;98465.56;;;22.84;20.56
62524;BME280;53689;56.878;60.672;2023-02-01T09:18:28;98461.63;;;22.87;20.21
62524;BME280;53689;56.878;60.672;2023-02-01T09:20:56;98463.72;;;22.85;20.52
62524;BME280;53689;56.878;60.672;2023-02-01T09:23:24;98467.88;;;22.88;20.34
62524;BME280;53689;56.878;60.672;2023-02-01T09:25:52;98470.78;;;22.93;19.88
62524;BME280;53689;56.878;60.672;2023-02-01T09:28:20;98471.84;;;22.92;20.09
62524;BME280;53689;56.878;60.672;2023-02-01T09:31:26;98479.47;;;22.81;20.38
62524;BME280;53689;56.878;60.672;2023-02-01T09:33:53;98472.25;;;22.89;20.64
62524;BME280;53689;56.878;60.672;2023-02-01T09:36:21;98474.78;;;22.97;20.34
62524;BME280;53689;56.878;60.672;2023-02-01T09:39:09;98484.47;;;22.84;20.74
62524;BME280;53689;56.878;60.672;2023-02-01T09:41:45;98485.34;;;22.92;20.44
62524;BME280;53689;56.878;60.672;2023-02-01T09:44:37;98487.84;;;22.93;20.46
62524;BME280;53689;56.878;60.672;2023-02-01T09:47:14;98481.22;;;22.96;20.96
62524;BME280;53689;56.878;60.672;2023-02-01T09:49:50;98486.63;;;23.03;20.74
62524;BME280;53689;56.878;60.672;2023-02-01T09:52:27;98493.06;;;23.02;21.22
62524;BME280;53689;56.878;60.672;2023-02-01T09:55:00;98486.81;;;22.94;20.63
62524;BME280;53689;56.878;60.672;2023-02-01T09:57:40;98486.19;;;22.92;20.79
62524;BME280;53689;56.878;60.672;2023-02-01T10:00:18;98486.63;;;22.96;20.89
62524;BME280;53689;56.878;60.672;2023-02-01T10:02:50;98489.31;;;22.96;20.92
62524;BME280;53689;56.878;60.672;2023-02-01T10:05:42;98492.63;;;22.91;20.67
62524;BME280;53689;56.878;60.672;2023-02-01T10:08:19;98490.53;;;22.93;20.53
62524;BME280;53689;56.878;60.672;2023-02-01T10:10:52;98494.91;;;22.94;20.41
62524;BME280;53689;56.878;60.672;2023-02-01T10:13:40;98485.16;;;23.00;20.05
62524;BME280;53689;56.878;60.672;2023-02-01T10:16:25;98486.19;;;22.99;20.05
62524;BME280;53689;56.878;60.672;2023-02-01T10:19:26;98484.13;;;23.01;19.88
62524;BME280;53689;56.878;60.672;2023-02-01T10:22:00;98484.50;;;22.91;20.65
62524;BME280;53689;56.878;60.672;2023-02-01T10:24:38;98490.75;;;22.98;21.03
62524;BME280;53689;56.878;60.672;2023-02-01T10:27:13;98489.31;;;22.96;20.64
62524;BME280;53689;56.878;60.672;2023-02-01T10:29:43;98485.75;;;22.95;21.15
62524;BME280;53689;56.878;60.672;2023-02-01T10:32:14;98500.13;;;22.96;22.24
62524;BME280;53689;56.878;60.672;2023-02-01T10:34:49;98501.78;;;22.97;22.11
62524;BME280;53689;56.878;60.672;2023-02-01T10:37:26;98500.31;;;23.01;22.83
62524;BME280;53689;56.878;60.672;2023-02-01T10:39:56;98505.69;;;22.94;23.88
62524;BME280;53689;56.878;60.672;2023-02-01T10:42:27;98499.44;;;22.94;22.68
62524;BME280;53689;56.878;60.672;2023-02-01T10:44:59;98506.94;;;22.98;21.89
62524;BME280;53689;56.878;60.672;2023-02-01T10:47:29;98508.84;;;22.98;21.97
62524;BME280;53689;56.878;60.672;2023-02-01T10:50:06;98507.81;;;22.99;21.79
62524;BME280;53689;56.878;60.672;2023-02-01T10:52:43;98508.44;;;23.01;21.09
62524;BME280;53689;56.878;60.672;2023-02-01T10:55:46;98509.09;;;23.10;21.73
62524;BME280;53689;56.878;60.672;2023-02-01T10:58:16;98511.19;;;23.14;21.03
62524;BME280;53689;56.878;60.672;2023-02-01T11:00:52;98512.44;;;23.12;20.43
62524;BME280;53689;56.878;60.672;2023-02-01T11:03:39;98511.56;;;23.05;21.89
62524;BME280;53689;56.878;60.672;2023-02-01T11:06:18;98516.34;;;23.09;21.76
62524;BME280;53689;56.878;60.672;2023-02-01T11:08:48;98515.31;;;23.10;21.50
62524;BME280;53689;56.878;60.672;2023-02-01T11:11:18;98513.66;;;23.09;22.14
62524;BME280;53689;56.878;60.672;2023-02-01T11:13:55;98507.22;;;23.10;22.47
62524;BME280;53689;56.878;60.672;2023-02-01T11:16:35;98517.41;;;23.08;21.23
62524;BME280;53689;56.878;60.672;2023-02-01T11:19:04;98515.31;;;23.10;22.37
62524;BME280;53689;56.878;60.672;2023-02-01T11:21:34;98514.69;;;23.08;21.26
62524;BME280;53689;56.878;60.672;2023-02-01T11:24:04;98514.09;;;23.13;21.57
62524;BME280;53689;56.878;60.672;2023-02-01T11:26:33;98520.31;;;23.13;21.79
62524;BME280;53689;56.878;60.672;2023-02-01T11:29:03;98506.75;;;22.93;22.03
62524;BME280;53689;56.878;60.672;2023-02-01T11:31:34;98511.56;;;23.11;21.47
62524;BME280;53689;56.878;60.672;2023-02-01T11:34:07;98517.22;;;23.17;21.66
62524;BME280;53689;56.878;60.672;2023-02-01T11:36:39;98512.44;;;23.19;21.28
62524;BME280;53689;56.878;60.672;2023-02-01T11:39:16;98518.69;;;23.19;20.67
62524;BME280;53689;56.878;60.672;2023-02-01T11:41:57;98517.84;;;23.19;21.33
62524;BME280;53689;56.878;60.672;2023-02-01T11:44:34;98517.84;;;23.19;20.79
62524;BME280;53689;56.878;60.672;2023-02-01T11:47:22;98519.31;;;23.21;21.38
62524;BME280;53689;56.878;60.672;2023-02-01T11:49:51;98516.53;;;23.08;20.87
62524;BME280;53689;56.878;60.672;2023-02-01T11:52:39;98512.84;;;23.16;20.69
62524;BME280;53689;56.878;60.672;2023-02-01T11:55:30;98518.88;;;23.18;21.47
62524;BME280;53689;56.878;60.672;2023-02-01T11:58:11;98520.13;;;23.15;21.52
62524;BME280;53689;56.878;60.672;2023-02-01T12:01:02;98524.88;;;23.13;21.10
62524;BME280;53689;56.878;60.672;2023-02-01T12:06:32;98527.78;;;23.11;22.01
62524;BME280;53689;56.878;60.672;2023-02-01T12:09:21;98534.03;;;23.12;21.57
62524;BME280;53689;56.878;60.672;2023-02-01T12:11:58;98532.81;;;23.14;22.25
62524;BME280;53689;56.878;60.672;2023-02-01T12:14:48;98535.66;;;23.06;22.06
62524;BME280;53689;56.878;60.672;2023-02-01T12:17:45;98542.50;;;23.02;22.32
62524;BME280;53689;56.878;60.672;2023-02-01T12:20:31;98541.09;;;23.13;22.32
62524;BME280;53689;56.878;60.672;2023-02-01T12:23:13;98539.22;;;23.13;22.11
62524;BME280;53689;56.878;60.672;2023-02-01T12:26:01;98544.63;;;23.13;21.73
62524;BME280;53689;56.878;60.672;2023-02-01T12:28:52;98533.81;;;23.13;22.14
62524;BME280;53689;56.878;60.672;2023-02-01T12:31:40;98541.09;;;23.13;21.44
62524;BME280;53689;56.878;60.672;2023-02-01T12:34:34;98539.16;;;23.00;21.58
62524;BME280;53689;56.878;60.672;2023-02-01T12:37:14;98544.63;;;23.13;21.68
62524;BME280;53689;56.878;60.672;2023-02-01T12:39:52;98543.19;;;23.18;21.47
62524;BME280;53689;56.878;60.672;2023-02-01T12:42:28;98539.66;;;23.17;21.37
62524;BME280;53689;56.878;60.672;2023-02-01T12:45:01;98546.53;;;23.20;21.40
62524;BME280;53689;56.878;60.672;2023-02-01T12:47:35;98550.06;;;23.20;21.60
62524;BME280;53689;56.878;60.672;2023-02-01T12:52:46;98549.22;;;23.20;21.17
62524;BME280;53689;56.878;60.672;2023-02-01T12:55:19;98554.81;;;23.18;22.17
62524;BME280;53689;56.878;60.672;2023-02-01T12:57:53;98552.72;;;23.13;21.68
62524;BME280;53689;56.878;60.672;2023-02-01T13:00:29;98566.03;;;23.15;21.79
62524;BME280;53689;56.878;60.672;2023-02-01T13:03:03;98560.88;;;22.78;22.32
62524;BME280;53689;56.878;60.672;2023-02-01T13:05:37;98564.66;;;22.91;22.29
62524;BME280;53689;56.878;60.672;2023-02-01T13:08:15;98567.47;;;23.11;22.14
62524;BME280;53689;56.878;60.672;2023-02-01T13:10:47;98573.31;;;23.14;22.16
62524;BME280;53689;56.878;60.672;2023-02-01T13:13:22;98568.91;;;23.13;22.10
62524;BME280;53689;56.878;60.672;2023-02-01T13:15:58;98573.94;;;23.17;22.04
62524;BME280;53689;56.878;60.672;2023-02-01T13:18:36;98572.47;;;23.14;21.87
62524;BME280;53689;56.878;60.672;2023-02-01T13:21:08;98572.06;;;23.17;22.42
62524;BME280;53689;56.878;60.672;2023-02-01T13:23:38;98588.47;;;23.16;22.30